sensor_id;sensor_type;location;lat;lon;timestamp;temperature;humidity
40253;DHT22;25972;51.854;4.534;2023-07-30T00:01:29;16.30;99.90
40253;DHT22;25972;51.854;4.534;2023-07-30T00:03:57;16.20;99.90
40253;DHT22;25972;51.854;4.534;2023-07-30T00:06:23;16.20;99.90
40253;DHT22;25972;51.854;4.534;2023-07-30T00:08:49;16.20;99.90
40253;DHT22;25972;51.854;4.534;2023-07-30T00:11:15;16.20;99.90
40253;DHT22;25972;51.854;4.534;2023-07-30T00:13:41;16.20;99.90
40253;DHT22;25972;51.854;4.534;2023-07-30T00:16:07;16.20;99.90
40253;DHT22;25972;51.854;4.534;2023-07-30T00:18:33;16.20;99.90
40253;DHT22;25972;51.854;4.534;2023-07-30T00:21:01;16.20;99.90
40253;DHT22;25972;51.854;4.534;2023-07-30T00:23:27;16.20;99.90
40253;DHT22;25972;51.854;4.534;2023-07-30T00:25:53;16.20;99.90
40253;DHT22;25972;51.854;4.534;2023-07-30T00:28:19;16.20;99.90
40253;DHT22;25972;51.854;4.534;2023-07-30T00:30:46;16.30;99.90
40253;DHT22;25972;51.854;4.534;2023-07-30T00:33:12;16.30;99.90
40253;DHT22;25972;51.854;4.534;2023-07-30T00:35:39;16.30;99.90
40253;DHT22;25972;51.854;4.534;2023-07-30T00:38:06;16.30;99.90
40253;DHT22;25972;51.854;4.534;2023-07-30T00:40:35;16.40;99.90
40253;DHT22;25972;51.854;4.534;2023-07-30T00:43:04;16.40;99.90
40253;DHT22;25972;51.854;4.534;2023-07-30T00:45:31;16.50;99.90
40253;DHT22;25972;51.854;4.534;2023-07-30T00:47:57;16.40;99.90
40253;DHT22;25972;51.854;4.534;2023-07-30T00:50:23;16.50;99.90
40253;DHT22;25972;51.854;4.534;2023-07-30T00:52:50;16.50;99.90
40253;DHT22;25972;51.854;4.534;2023-07-30T00:55:19;16.50;99.90
40253;DHT22;25972;51.854;4.534;2023-07-30T00:57:45;16.50;99.90
40253;DHT22;25972;51.854;4.534;2023-07-30T01:00:12;16.50;99.90
40253;DHT22;25972;51.854;4.534;2023-07-30T01:02:38;16.60;99.90
40253;DHT22;25972;51.854;4.534;2023-07-30T01:05:05;16.60;99.90
40253;DHT22;25972;51.854;4.534;2023-07-30T01:07:31;16.60;99.90
40253;DHT22;25972;51.854;4.534;2023-07-30T01:09:58;16.60;99.90
40253;DHT22;25972;51.854;4.534;2023-07-30T01:12:26;16.60;99.90
40253;DHT22;25972;51.854;4.534;2023-07-30T01:14:54;16.70;99.90
40253;DHT22;25972;51.854;4.534;2023-07-30T01:17:22;16.70;99.90
40253;DHT22;25972;51.854;4.534;2023-07-30T01:19:49;16.70;99.90
40253;DHT22;25972;51.854;4.534;2023-07-30T01:22:23;16.60;99.90
40253;DHT22;25972;51.854;4.534;2023-07-30T01:24:49;16.60;99.90
40253;DHT22;25972;51.854;4.534;2023-07-30T01:27:20;16.60;99.90
40253;DHT22;25972;51.854;4.534;2023-07-30T01:29:52;16.60;99.90
40253;DHT22;25972;51.854;4.534;2023-07-30T01:32:23;16.70;99.90
40253;DHT22;25972;51.854;4.534;2023-07-30T01:34:51;16.70;99.90
40253;DHT22;25972;51.854;4.534;2023-07-30T01:37:18;16.70;99.90
40253;DHT22;25972;51.854;4.534;2023-07-30T01:39:48;16.70;99.90
40253;DHT22;25972;51.854;4.534;2023-07-30T01:42:14;16.70;99.90
40253;DHT22;25972;51.854;4.534;2023-07-30T01:44:41;16.70;99.90
40253;DHT22;25972;51.854;4.534;2023-07-30T01:47:07;16.70;99.90
40253;DHT22;25972;51.854;4.534;2023-07-30T01:49:33;16.70;99.90
40253;DHT22;25972;51.854;4.534;2023-07-30T01:51:59;16.70;99.90
40253;DHT22;25972;51.854;4.534;2023-07-30T01:54:26;16.70;99.90
40253;DHT22;25972;51.854;4.534;2023-07-30T01:56:54;16.70;99.90
40253;DHT22;25972;51.854;4.534;2023-07-30T01:59:20;16.70;99.90
40253;DHT22;25972;51.854;4.534;2023-07-30T02:01:46;16.70;99.90
40253;DHT22;25972;51.854;4.534;2023-07-30T02:04:12;16.60;99.90
40253;DHT22;25972;51.854;4.534;2023-07-30T02:06:38;16.60;99.90
40253;DHT22;25972;51.854;4.534;2023-07-30T02:09:04;16.60;99.90
40253;DHT22;25972;51.854;4.534;2023-07-30T02:11:31;16.60;99.90
40253;DHT22;25972;51.854;4.534;2023-07-30T02:13:58;16.60;99.90
40253;DHT22;25972;51.854;4.534;2023-07-30T02:16:24;16.60;99.90
40253;DHT22;25972;51.854;4.534;2023-07-30T02:18:51;16.60;99.90
40253;DHT22;25972;51.854;4.534;2023-07-30T02:21:17;16.50;99.90
40253;DHT22;25972;51.854;4.534;2023-07-30T02:23:43;16.60;99.90
40253;DHT22;25972;51.854;4.534;2023-07-30T02:26:09;16.50;99.90
40253;DHT22;25972;51.854;4.534;2023-07-30T02:28:35;16.50;99.90
40253;DHT22;25972;51.854;4.534;2023-07-30T02:31:03;16.50;99.90
40253;DHT22;25972;51.854;4.534;2023-07-30T02:33:29;16.40;99.90
40253;DHT22;25972;51.854;4.534;2023-07-30T02:35:55;16.40;99.90
40253;DHT22;25972;51.854;4.534;2023-07-30T02:38:21;16.40;99.90
40253;DHT22;25972;51.854;4.534;2023-07-30T02:40:47;16.40;99.90
40253;DHT22;25972;51.854;4.534;2023-07-30T02:43:13;16.40;99.90
40253;DHT22;25972;51.854;4.534;2023-07-30T02:45:39;16.40;99.90
40253;DHT22;25972;51.854;4.534;2023-07-30T02:48:07;16.40;99.90
40253;DHT22;25972;51.854;4.534;2023-07-30T02:50:33;16.40;99.90
40253;DHT22;25972;51.854;4.534;2023-07-30T02:52:59;16.40;99.90
40253;DHT22;25972;51.854;4.534;2023-07-30T02:55:26;16.40;99.90
40253;DHT22;25972;51.854;4.534;2023-07-30T02:57:52;16.40;99.90
40253;DHT22;25972;51.854;4.534;2023-07-30T03:00:18;16.40;99.90
40253;DHT22;25972;51.854;4.534;2023-07-30T03:02:45;16.40;99.90
40253;DHT22;25972;51.854;4.534;2023-07-30T03:05:12;16.40;99.90
40253;DHT22;25972;51.854;4.534;2023-07-30T03:07:38;16.40;99.90
40253;DHT22;25972;51.854;4.534;2023-07-30T03:10:05;16.40;99.90
40253;DHT22;25972;51.854;4.534;2023-07-30T03:12:31;16.40;99.90
40253;DHT22;25972;51.854;4.534;2023-07-30T03:14:57;16.40;99.90
40253;DHT22;25972;51.854;4.534;2023-07-30T03:17:25;16.40;99.90
40253;DHT22;25972;51.854;4.534;2023-07-30T03:19:51;16.40;99.90
40253;DHT22;25972;51.854;4.534;2023-07-30T03:22:20;16.40;99.90
40253;DHT22;25972;51.854;4.534;2023-07-30T03:24:46;16.40;99.90
40253;DHT22;25972;51.854;4.534;2023-07-30T03:27:13;16.40;99.90
40253;DHT22;25972;51.854;4.534;2023-07-30T03:29:39;16.40;99.90
40253;DHT22;25972;51.854;4.534;2023-07-30T03:32:06;16.40;99.90
40253;DHT22;25972;51.854;4.534;2023-07-30T03:34:32;16.40;99.90
40253;DHT22;25972;51.854;4.534;2023-07-30T03:36:58;16.40;99.90
40253;DHT22;25972;51.854;4.534;2023-07-30T03:39:27;16.40;99.90
40253;DHT22;25972;51.854;4.534;2023-07-30T03:41:53;16.40;99.90
40253;DHT22;25972;51.854;4.534;2023-07-30T03:44:19;16.40;99.90
40253;DHT22;25972;51.854;4.534;2023-07-30T03:46:46;16.40;99.90
40253;DHT22;25972;51.854;4.534;2023-07-30T03:49:12;16.40;99.90
40253;DHT22;25972;51.854;4.534;2023-07-30T03:51:38;16.40;99.90
40253;DHT22;25972;51.854;4.534;2023-07-30T03:54:04;16.40;99.90
40253;DHT22;25972;51.854;4.534;2023-07-30T03:56:32;16.30;99.90
40253;DHT22;25972;51.854;4.534;2023-07-30T03:58:58;16.30;99.90
40253;DHT22;25972;51.854;4.534;2023-07-30T04:01:24;16.30;99.90
40253;DHT22;25972;51.854;4.534;2023-07-30T04:03:50;16.30;99.90
40253;DHT22;25972;51.854;4.534;2023-07-30T04:06:17;16.30;99.90
40253;DHT22;25972;51.854;4.534;2023-07-30T04:08:43;16.20;99.90
40253;DHT22;25972;51.854;4.534;2023-07-30T04:11:09;16.30;99.90
40253;DHT22;25972;51.854;4.534;2023-07-30T04:13:36;16.20;99.90
40253;DHT22;25972;51.854;4.534;2023-07-30T04:16:02;16.30;99.90
40253;DHT22;25972;51.854;4.534;2023-07-30T04:18:29;16.20;99.90
40253;DHT22;25972;51.854;4.534;2023-07-30T04:20:55;16.20;99.90
40253;DHT22;25972;51.854;4.534;2023-07-30T04:23:22;16.30;99.90
40253;DHT22;25972;51.854;4.534;2023-07-30T04:25:49;16.30;99.90
40253;DHT22;25972;51.854;4.534;2023-07-30T04:28:15;16.30;99.90
40253;DHT22;25972;51.854;4.534;2023-07-30T04:30:43;16.30;99.90
40253;DHT22;25972;51.854;4.534;2023-07-30T04:33:09;16.20;99.90
40253;DHT22;25972;51.854;4.534;2023-07-30T04:35:37;16.20;99.90
40253;DHT22;25972;51.854;4.534;2023-07-30T04:38:04;16.30;99.90
40253;DHT22;25972;51.854;4.534;2023-07-30T04:40:30;16.30;99.90
40253;DHT22;25972;51.854;4.534;2023-07-30T04:42:58;16.30;99.90
40253;DHT22;25972;51.854;4.534;2023-07-30T04:45:24;16.30;99.90
40253;DHT22;25972;51.854;4.534;2023-07-30T04:47:52;16.30;99.90
40253;DHT22;25972;51.854;4.534;2023-07-30T04:50:19;16.40;99.90
40253;DHT22;25972;51.854;4.534;2023-07-30T04:52:45;16.30;99.90
40253;DHT22;25972;51.854;4.534;2023-07-30T04:55:11;16.40;99.90
40253;DHT22;25972;51.854;4.534;2023-07-30T04:57:37;16.40;99.90
40253;DHT22;25972;51.854;4.534;2023-07-30T05:00:04;16.40;99.90
40253;DHT22;25972;51.854;4.534;2023-07-30T05:02:32;16.40;99.90
40253;DHT22;25972;51.854;4.534;2023-07-30T05:04:59;16.40;99.90
40253;DHT22;25972;51.854;4.534;2023-07-30T05:07:25;16.40;99.90
40253;DHT22;25972;51.854;4.534;2023-07-30T05:09:51;16.40;99.90
40253;DHT22;25972;51.854;4.534;2023-07-30T05:12:17;16.40;99.90
40253;DHT22;25972;51.854;4.534;2023-07-30T05:14:44;16.50;99.90
40253;DHT22;25972;51.854;4.534;2023-07-30T05:17:10;16.50;99.90
40253;DHT22;25972;51.854;4.534;2023-07-30T05:19:36;16.50;99.90
40253;DHT22;25972;51.854;4.534;2023-07-30T05:22:04;16.60;99.90
40253;DHT22;25972;51.854;4.534;2023-07-30T05:24:31;16.60;99.90
40253;DHT22;25972;51.854;4.534;2023-07-30T05:26:58;16.70;99.90
40253;DHT22;25972;51.854;4.534;2023-07-30T05:29:23;16.70;99.90
40253;DHT22;25972;51.854;4.534;2023-07-30T05:31:49;16.70;99.90
40253;DHT22;25972;51.854;4.534;2023-07-30T05:34:15;16.90;99.90
40253;DHT22;25972;51.854;4.534;2023-07-30T05:36:42;16.90;99.90
40253;DHT22;25972;51.854;4.534;2023-07-30T05:39:09;16.90;99.90
40253;DHT22;25972;51.854;4.534;2023-07-30T05:41:35;16.90;99.90
40253;DHT22;25972;51.854;4.534;2023-07-30T05:44:01;16.90;99.90
40253;DHT22;25972;51.854;4.534;2023-07-30T05:46:27;16.90;99.90
40253;DHT22;25972;51.854;4.534;2023-07-30T05:48:53;17.00;99.90
40253;DHT22;25972;51.854;4.534;2023-07-30T05:51:19;17.00;99.90
40253;DHT22;25972;51.854;4.534;2023-07-30T05:53:46;17.10;99.90
40253;DHT22;25972;51.854;4.534;2023-07-30T05:56:13;17.10;99.90
40253;DHT22;25972;51.854;4.534;2023-07-30T05:58:40;17.10;99.90
40253;DHT22;25972;51.854;4.534;2023-07-30T06:01:06;17.30;99.90
40253;DHT22;25972;51.854;4.534;2023-07-30T06:03:33;17.30;99.90
40253;DHT22;25972;51.854;4.534;2023-07-30T06:06:01;17.60;99.90
40253;DHT22;25972;51.854;4.534;2023-07-30T06:08:27;17.60;99.90
40253;DHT22;25972;51.854;4.534;2023-07-30T06:10:53;17.50;99.90
40253;DHT22;25972;51.854;4.534;2023-07-30T06:13:21;17.60;99.90
40253;DHT22;25972;51.854;4.534;2023-07-30T06:15:47;17.40;99.90
40253;DHT22;25972;51.854;4.534;2023-07-30T06:18:13;17.30;99.90
40253;DHT22;25972;51.854;4.534;2023-07-30T06:20:39;17.30;99.90
40253;DHT22;25972;51.854;4.534;2023-07-30T06:23:05;17.30;99.90
40253;DHT22;25972;51.854;4.534;2023-07-30T06:25:31;17.30;99.90
40253;DHT22;25972;51.854;4.534;2023-07-30T06:27:59;17.30;99.90
40253;DHT22;25972;51.854;4.534;2023-07-30T06:30:27;17.20;99.90
40253;DHT22;25972;51.854;4.534;2023-07-30T06:32:56;17.20;99.90
40253;DHT22;25972;51.854;4.534;2023-07-30T06:35:22;17.20;99.90
40253;DHT22;25972;51.854;4.534;2023-07-30T06:37:49;17.10;99.90
40253;DHT22;25972;51.854;4.534;2023-07-30T06:40:15;17.00;99.90
40253;DHT22;25972;51.854;4.534;2023-07-30T06:42:41;17.00;99.90
40253;DHT22;25972;51.854;4.534;2023-07-30T06:45:08;17.00;99.90
40253;DHT22;25972;51.854;4.534;2023-07-30T06:47:35;17.00;99.90
40253;DHT22;25972;51.854;4.534;2023-07-30T06:50:02;16.90;99.90
40253;DHT22;25972;51.854;4.534;2023-07-30T06:52:32;16.90;99.90
40253;DHT22;25972;51.854;4.534;2023-07-30T06:54:58;16.90;99.90
40253;DHT22;25972;51.854;4.534;2023-07-30T06:57:25;17.10;99.90
40253;DHT22;25972;51.854;4.534;2023-07-30T06:59:51;17.30;99.90
40253;DHT22;25972;51.854;4.534;2023-07-30T07:02:17;17.40;99.90
40253;DHT22;25972;51.854;4.534;2023-07-30T07:04:44;17.70;99.90
40253;DHT22;25972;51.854;4.534;2023-07-30T07:07:10;17.90;99.90
40253;DHT22;25972;51.854;4.534;2023-07-30T07:09:36;18.00;99.90
40253;DHT22;25972;51.854;4.534;2023-07-30T07:12:03;18.10;99.90
40253;DHT22;25972;51.854;4.534;2023-07-30T07:14:30;18.20;99.90
40253;DHT22;25972;51.854;4.534;2023-07-30T07:16:56;18.30;99.90
40253;DHT22;25972;51.854;4.534;2023-07-30T07:19:22;18.60;99.90
40253;DHT22;25972;51.854;4.534;2023-07-30T07:21:50;19.10;99.90
40253;DHT22;25972;51.854;4.534;2023-07-30T07:24:16;19.30;99.90
40253;DHT22;25972;51.854;4.534;2023-07-30T07:26:43;19.50;99.90
40253;DHT22;25972;51.854;4.534;2023-07-30T07:29:09;19.40;99.90
40253;DHT22;25972;51.854;4.534;2023-07-30T07:31:36;19.50;99.90
40253;DHT22;25972;51.854;4.534;2023-07-30T07:34:02;19.40;99.90
40253;DHT22;25972;51.854;4.534;2023-07-30T07:36:28;19.10;99.90
40253;DHT22;25972;51.854;4.534;2023-07-30T07:38:56;19.00;99.90
40253;DHT22;25972;51.854;4.534;2023-07-30T07:41:22;18.80;99.90
40253;DHT22;25972;51.854;4.534;2023-07-30T07:43:48;18.80;99.90
40253;DHT22;25972;51.854;4.534;2023-07-30T07:46:15;18.70;99.90
40253;DHT22;25972;51.854;4.534;2023-07-30T07:48:42;18.80;99.90
40253;DHT22;25972;51.854;4.534;2023-07-30T07:51:09;18.90;99.90
40253;DHT22;25972;51.854;4.534;2023-07-30T07:53:35;18.80;99.90
40253;DHT22;25972;51.854;4.534;2023-07-30T07:56:02;18.80;99.90
40253;DHT22;25972;51.854;4.534;2023-07-30T07:58:30;18.70;99.90
40253;DHT22;25972;51.854;4.534;2023-07-30T08:00:56;18.40;99.90
40253;DHT22;25972;51.854;4.534;2023-07-30T08:03:23;18.30;99.90
40253;DHT22;25972;51.854;4.534;2023-07-30T08:05:49;18.40;99.90
40253;DHT22;25972;51.854;4.534;2023-07-30T08:08:17;18.50;99.90
40253;DHT22;25972;51.854;4.534;2023-07-30T08:10:43;18.50;99.90
40253;DHT22;25972;51.854;4.534;2023-07-30T08:13:13;18.70;99.90
40253;DHT22;25972;51.854;4.534;2023-07-30T08:15:39;18.60;99.90
40253;DHT22;25972;51.854;4.534;2023-07-30T08:18:06;18.40;99.90
40253;DHT22;25972;51.854;4.534;2023-07-30T08:20:32;18.30;99.90
40253;DHT22;25972;51.854;4.534;2023-07-30T08:22:58;18.40;99.90
40253;DHT22;25972;51.854;4.534;2023-07-30T08:25:24;18.40;99.90
40253;DHT22;25972;51.854;4.534;2023-07-30T08:27:50;18.50;99.90
40253;DHT22;25972;51.854;4.534;2023-07-30T08:30:17;18.70;99.90
40253;DHT22;25972;51.854;4.534;2023-07-30T08:32:46;19.00;99.90
40253;DHT22;25972;51.854;4.534;2023-07-30T08:35:12;19.20;99.90
40253;DHT22;25972;51.854;4.534;2023-07-30T08:37:38;19.60;99.90
40253;DHT22;25972;51.854;4.534;2023-07-30T08:40:06;19.90;99.90
40253;DHT22;25972;51.854;4.534;2023-07-30T08:42:32;20.10;99.90
40253;DHT22;25972;51.854;4.534;2023-07-30T08:44:59;20.10;99.90
40253;DHT22;25972;51.854;4.534;2023-07-30T08:47:27;20.40;99.90
40253;DHT22;25972;51.854;4.534;2023-07-30T08:49:53;20.50;99.90
40253;DHT22;25972;51.854;4.534;2023-07-30T08:52:21;20.90;99.90
40253;DHT22;25972;51.854;4.534;2023-07-30T08:54:49;20.90;99.90
40253;DHT22;25972;51.854;4.534;2023-07-30T08:57:16;20.70;99.90
40253;DHT22;25972;51.854;4.534;2023-07-30T08:59:49;20.70;99.90
40253;DHT22;25972;51.854;4.534;2023-07-30T09:02:19;20.90;99.90
40253;DHT22;25972;51.854;4.534;2023-07-30T09:04:53;20.80;99.90
40253;DHT22;25972;51.854;4.534;2023-07-30T09:07:22;20.70;99.90
40253;DHT22;25972;51.854;4.534;2023-07-30T09:09:49;20.90;93.80
40253;DHT22;25972;51.854;4.534;2023-07-30T09:12:15;21.20;55.80
40253;DHT22;25972;51.854;4.534;2023-07-30T09:14:42;21.40;16.20
40253;DHT22;25972;51.854;4.534;2023-07-30T09:17:16;21.60;9.20
40253;DHT22;25972;51.854;4.534;2023-07-30T09:19:42;21.60;1.00
40253;DHT22;25972;51.854;4.534;2023-07-30T09:22:10;21.60;1.00
40253;DHT22;25972;51.854;4.534;2023-07-30T09:24:41;21.80;1.00
40253;DHT22;25972;51.854;4.534;2023-07-30T09:27:09;21.70;1.00
40253;DHT22;25972;51.854;4.534;2023-07-30T09:29:35;22.10;1.00
40253;DHT22;25972;51.854;4.534;2023-07-30T09:32:02;22.20;1.00
40253;DHT22;25972;51.854;4.534;2023-07-30T09:34:28;22.20;1.00
40253;DHT22;25972;51.854;4.534;2023-07-30T09:36:56;22.20;1.00
40253;DHT22;25972;51.854;4.534;2023-07-30T09:39:26;22.10;1.00
40253;DHT22;25972;51.854;4.534;2023-07-30T09:41:59;22.20;1.00
40253;DHT22;25972;51.854;4.534;2023-07-30T09:44:27;22.40;1.00
40253;DHT22;25972;51.854;4.534;2023-07-30T09:46:53;22.50;1.00
40253;DHT22;25972;51.854;4.534;2023-07-30T09:49:19;22.40;1.00
40253;DHT22;25972;51.854;4.534;2023-07-30T09:51:45;22.70;1.00
40253;DHT22;25972;51.854;4.534;2023-07-30T09:54:13;22.50;1.00
40253;DHT22;25972;51.854;4.534;2023-07-30T09:56:42;22.60;1.00
40253;DHT22;25972;51.854;4.534;2023-07-30T09:59:08;22.60;1.00
40253;DHT22;25972;51.854;4.534;2023-07-30T10:01:38;22.50;1.00
40253;DHT22;25972;51.854;4.534;2023-07-30T10:04:08;22.90;1.00
40253;DHT22;25972;51.854;4.534;2023-07-30T10:06:38;23.30;1.00
40253;DHT22;25972;51.854;4.534;2023-07-30T10:09:07;23.40;1.00
40253;DHT22;25972;51.854;4.534;2023-07-30T10:11:35;23.30;1.00
40253;DHT22;25972;51.854;4.534;2023-07-30T10:14:03;23.20;1.00
40253;DHT22;25972;51.854;4.534;2023-07-30T10:16:30;22.90;1.00
40253;DHT22;25972;51.854;4.534;2023-07-30T10:18:56;22.70;1.00
40253;DHT22;25972;51.854;4.534;2023-07-30T10:21:26;22.90;1.00
40253;DHT22;25972;51.854;4.534;2023-07-30T10:23:59;23.10;1.00
40253;DHT22;25972;51.854;4.534;2023-07-30T10:26:30;23.20;1.00
40253;DHT22;25972;51.854;4.534;2023-07-30T10:29:19;23.10;1.00
40253;DHT22;25972;51.854;4.534;2023-07-30T10:31:48;23.20;1.00
40253;DHT22;25972;51.854;4.534;2023-07-30T10:34:15;23.20;1.00
40253;DHT22;25972;51.854;4.534;2023-07-30T10:36:43;23.30;1.00
40253;DHT22;25972;51.854;4.534;2023-07-30T10:39:15;23.30;1.00
40253;DHT22;25972;51.854;4.534;2023-07-30T10:41:45;23.30;1.00
40253;DHT22;25972;51.854;4.534;2023-07-30T10:44:22;23.10;1.00
40253;DHT22;25972;51.854;4.534;2023-07-30T10:46:50;23.00;1.00
40253;DHT22;25972;51.854;4.534;2023-07-30T10:49:16;23.20;1.00
40253;DHT22;25972;51.854;4.534;2023-07-30T10:51:47;23.40;1.00
40253;DHT22;25972;51.854;4.534;2023-07-30T10:54:21;23.60;1.00
40253;DHT22;25972;51.854;4.534;2023-07-30T10:56:48;23.80;1.00
40253;DHT22;25972;51.854;4.534;2023-07-30T10:59:15;23.40;1.00
40253;DHT22;25972;51.854;4.534;2023-07-30T11:01:43;23.10;1.00
40253;DHT22;25972;51.854;4.534;2023-07-30T11:04:19;22.90;1.00
40253;DHT22;25972;51.854;4.534;2023-07-30T11:06:47;22.50;1.00
40253;DHT22;25972;51.854;4.534;2023-07-30T11:09:21;22.40;1.00
40253;DHT22;25972;51.854;4.534;2023-07-30T11:11:47;22.50;1.00
40253;DHT22;25972;51.854;4.534;2023-07-30T11:14:25;22.50;1.00
40253;DHT22;25972;51.854;4.534;2023-07-30T11:16:57;22.50;1.00
40253;DHT22;25972;51.854;4.534;2023-07-30T11:19:25;22.50;1.00
40253;DHT22;25972;51.854;4.534;2023-07-30T11:21:52;22.50;1.00
40253;DHT22;25972;51.854;4.534;2023-07-30T11:24:20;22.30;1.00
40253;DHT22;25972;51.854;4.534;2023-07-30T11:26:56;22.20;1.00
40253;DHT22;25972;51.854;4.534;2023-07-30T11:29:23;22.10;1.00
40253;DHT22;25972;51.854;4.534;2023-07-30T11:31:49;22.20;1.00
40253;DHT22;25972;51.854;4.534;2023-07-30T11:34:16;22.00;1.00
40253;DHT22;25972;51.854;4.534;2023-07-30T11:36:45;22.10;1.00
40253;DHT22;25972;51.854;4.534;2023-07-30T11:39:14;22.30;1.00
40253;DHT22;25972;51.854;4.534;2023-07-30T11:41:41;22.30;1.00
40253;DHT22;25972;51.854;4.534;2023-07-30T11:44:07;22.40;1.00
40253;DHT22;25972;51.854;4.534;2023-07-30T11:46:33;22.60;1.00
40253;DHT22;25972;51.854;4.534;2023-07-30T11:49:28;22.50;1.00
40253;DHT22;25972;51.854;4.534;2023-07-30T11:52:04;22.40;1.00
40253;DHT22;25972;51.854;4.534;2023-07-30T11:54:30;22.30;1.00
40253;DHT22;25972;51.854;4.534;2023-07-30T11:56:58;22.10;1.00
40253;DHT22;25972;51.854;4.534;2023-07-30T11:59:27;22.30;1.00
40253;DHT22;25972;51.854;4.534;2023-07-30T12:01:54;22.20;1.00
40253;DHT22;25972;51.854;4.534;2023-07-30T12:04:20;22.40;1.00
40253;DHT22;25972;51.854;4.534;2023-07-30T12:06:50;22.60;1.00
40253;DHT22;25972;51.854;4.534;2023-07-30T12:09:24;22.70;1.00
40253;DHT22;25972;51.854;4.534;2023-07-30T12:12:03;22.80;1.00
40253;DHT22;25972;51.854;4.534;2023-07-30T12:14:42;23.00;1.00
40253;DHT22;25972;51.854;4.534;2023-07-30T12:17:11;23.00;1.00
40253;DHT22;25972;51.854;4.534;2023-07-30T12:19:42;23.10;1.00
40253;DHT22;25972;51.854;4.534;2023-07-30T12:22:10;22.70;1.00
40253;DHT22;25972;51.854;4.534;2023-07-30T12:24:36;22.70;1.00
40253;DHT22;25972;51.854;4.534;2023-07-30T12:27:06;22.70;1.00
40253;DHT22;25972;51.854;4.534;2023-07-30T12:29:33;22.60;1.00
40253;DHT22;25972;51.854;4.534;2023-07-30T12:32:08;22.70;1.00
40253;DHT22;25972;51.854;4.534;2023-07-30T12:34:34;22.50;1.00
40253;DHT22;25972;51.854;4.534;2023-07-30T12:37:04;22.70;1.00
40253;DHT22;25972;51.854;4.534;2023-07-30T12:39:32;22.70;1.00
40253;DHT22;25972;51.854;4.534;2023-07-30T12:41:58;22.60;1.00
40253;DHT22;25972;51.854;4.534;2023-07-30T12:44:32;22.40;1.00
40253;DHT22;25972;51.854;4.534;2023-07-30T12:46:58;22.20;1.00
40253;DHT22;25972;51.854;4.534;2023-07-30T12:49:27;22.50;1.00
40253;DHT22;25972;51.854;4.534;2023-07-30T12:51:53;22.60;1.00
40253;DHT22;25972;51.854;4.534;2023-07-30T12:54:19;22.70;1.00
40253;DHT22;25972;51.854;4.534;2023-07-30T12:56:53;22.70;1.00
40253;DHT22;25972;51.854;4.534;2023-07-30T12:59:19;22.70;1.00
40253;DHT22;25972;51.854;4.534;2023-07-30T13:01:48;22.70;1.00
40253;DHT22;25972;51.854;4.534;2023-07-30T13:04:14;22.90;1.00
40253;DHT22;25972;51.854;4.534;2023-07-30T13:06:41;23.00;1.00
40253;DHT22;25972;51.854;4.534;2023-07-30T13:09:07;22.90;1.00
40253;DHT22;25972;51.854;4.534;2023-07-30T13:11:33;23.00;1.00
40253;DHT22;25972;51.854;4.534;2023-07-30T13:14:02;23.10;1.00
40253;DHT22;25972;51.854;4.534;2023-07-30T13:16:28;23.30;1.00
40253;DHT22;25972;51.854;4.534;2023-07-30T13:18:54;23.40;1.00
40253;DHT22;25972;51.854;4.534;2023-07-30T13:21:22;23.50;1.00
40253;DHT22;25972;51.854;4.534;2023-07-30T13:23:58;23.40;1.00
40253;DHT22;25972;51.854;4.534;2023-07-30T13:26:24;23.40;1.00
40253;DHT22;25972;51.854;4.534;2023-07-30T13:28:50;23.10;1.00
40253;DHT22;25972;51.854;4.534;2023-07-30T13:31:17;23.20;1.00
40253;DHT22;25972;51.854;4.534;2023-07-30T13:33:44;23.50;1.00
40253;DHT22;25972;51.854;4.534;2023-07-30T13:36:13;23.60;1.00
40253;DHT22;25972;51.854;4.534;2023-07-30T13:38:40;23.70;1.00
40253;DHT22;25972;51.854;4.534;2023-07-30T13:41:06;23.50;1.00
40253;DHT22;25972;51.854;4.534;2023-07-30T13:43:35;23.70;1.00
40253;DHT22;25972;51.854;4.534;2023-07-30T13:46:02;23.90;1.00
40253;DHT22;25972;51.854;4.534;2023-07-30T13:48:30;23.80;1.00
40253;DHT22;25972;51.854;4.534;2023-07-30T13:50:56;23.70;1.00
40253;DHT22;25972;51.854;4.534;2023-07-30T13:53:23;23.60;1.00
40253;DHT22;25972;51.854;4.534;2023-07-30T13:55:49;23.50;1.00
40253;DHT22;25972;51.854;4.534;2023-07-30T13:58:15;23.50;1.00
40253;DHT22;25972;51.854;4.534;2023-07-30T14:00:42;23.00;1.00
40253;DHT22;25972;51.854;4.534;2023-07-30T14:03:08;23.10;1.00
40253;DHT22;25972;51.854;4.534;2023-07-30T14:05:39;22.90;1.00
40253;DHT22;25972;51.854;4.534;2023-07-30T14:08:05;22.80;1.00
40253;DHT22;25972;51.854;4.534;2023-07-30T14:10:31;22.80;1.00
40253;DHT22;25972;51.854;4.534;2023-07-30T14:12:58;22.60;1.00
40253;DHT22;25972;51.854;4.534;2023-07-30T14:15:24;22.70;1.00
40253;DHT22;25972;51.854;4.534;2023-07-30T14:17:50;22.30;1.00
40253;DHT22;25972;51.854;4.534;2023-07-30T14:20:20;22.20;1.00
40253;DHT22;25972;51.854;4.534;2023-07-30T14:22:48;22.30;1.00
40253;DHT22;25972;51.854;4.534;2023-07-30T14:25:15;22.40;1.00
40253;DHT22;25972;51.854;4.534;2023-07-30T14:27:41;22.30;1.00
40253;DHT22;25972;51.854;4.534;2023-07-30T14:30:08;22.40;1.00
40253;DHT22;25972;51.854;4.534;2023-07-30T14:32:35;22.50;1.00
40253;DHT22;25972;51.854;4.534;2023-07-30T14:35:01;22.50;1.00
40253;DHT22;25972;51.854;4.534;2023-07-30T14:37:27;22.50;1.00
40253;DHT22;25972;51.854;4.534;2023-07-30T14:39:54;22.40;1.00
40253;DHT22;25972;51.854;4.534;2023-07-30T14:42:21;22.40;1.00
40253;DHT22;25972;51.854;4.534;2023-07-30T14:44:48;22.30;1.00
40253;DHT22;25972;51.854;4.534;2023-07-30T14:47:15;22.20;1.00
40253;DHT22;25972;51.854;4.534;2023-07-30T14:49:41;22.30;1.00
40253;DHT22;25972;51.854;4.534;2023-07-30T14:52:07;22.30;1.00
40253;DHT22;25972;51.854;4.534;2023-07-30T14:54:34;22.40;1.00
40253;DHT22;25972;51.854;4.534;2023-07-30T14:57:04;22.30;1.00
40253;DHT22;25972;51.854;4.534;2023-07-30T14:59:30;22.30;1.00
40253;DHT22;25972;51.854;4.534;2023-07-30T15:01:56;22.30;1.00
40253;DHT22;25972;51.854;4.534;2023-07-30T15:04:22;22.20;1.00
40253;DHT22;25972;51.854;4.534;2023-07-30T15:06:49;22.20;1.00
40253;DHT22;25972;51.854;4.534;2023-07-30T15:09:15;22.10;1.00
40253;DHT22;25972;51.854;4.534;2023-07-30T15:11:44;22.30;1.00
40253;DHT22;25972;51.854;4.534;2023-07-30T15:14:17;22.40;1.00
40253;DHT22;25972;51.854;4.534;2023-07-30T15:16:46;22.30;1.00
40253;DHT22;25972;51.854;4.534;2023-07-30T15:19:12;22.20;1.00
40253;DHT22;25972;51.854;4.534;2023-07-30T15:21:38;22.30;1.00
40253;DHT22;25972;51.854;4.534;2023-07-30T15:24:04;21.80;1.00
40253;DHT22;25972;51.854;4.534;2023-07-30T15:26:31;21.60;1.00
40253;DHT22;25972;51.854;4.534;2023-07-30T15:28:57;21.70;1.00
40253;DHT22;25972;51.854;4.534;2023-07-30T15:31:25;21.70;1.00
40253;DHT22;25972;51.854;4.534;2023-07-30T15:33:52;21.70;1.00
40253;DHT22;25972;51.854;4.534;2023-07-30T15:36:22;21.70;1.00
40253;DHT22;25972;51.854;4.534;2023-07-30T15:38:49;21.60;1.00